Annie — DB2113 — position and weather

sailwx.info

Track history (hours):
 
Tides and Currents Weather Stations Pressure Air Temp Water Temp Dewpoint Dewpoint Depression Visibility Wind Speed Wind Dir Waves Ship Positions

Annie

Last reported at 2018-Jun-08 14:40 UTC. Time now 2018-Jul-17 04:03 UTC.
Position N 39°38' E 019°56'.
Warning: this ship's position is 38 days out of date.

Length 11 m; draft 2.2 m.

Type: Sailing vessel. MMSI: 211526340.

Date/timePositionNaut miles runAvg speedWind from/ knotsBaromVisibWave heightAir tempDewpointWater temp
2018-Jun-08 14:40N 39°38' E 019°56'25 0.5
2018-Jun-06 14:12N 39°14' E 020°08'  
2018-Jun-03 10:40N 38°10' E 020°47'8 5.8
2018-Jun-03 09:13N 38°04' E 020°53'5 5.7
2018-Jun-03 08:17N 37°59' E 020°57'20 5.6
2018-Jun-03 04:46N 37°44' E 021°13'7 0.4
2018-Jun-02 11:33N 37°39' E 021°19'0 4.5
2018-Jun-02 11:30N 37°39' E 021°20'3 5.7
2018-Jun-02 11:01N 37°36' E 021°20'3 5.1
2018-Jun-02 10:30N 37°33' E 021°20'24 6.0
2018-Jun-02 06:32N 37°15' E 021°40'0 0.0
2018-Jun-01 16:35N 37°15' E 021°40'0 0.0
2018-Jun-01 16:29N 37°15' E 021°40'7 2.8
2018-Jun-01 14:01N 37°11' E 021°33'0 6.0
2018-Jun-01 14:00N 37°11' E 021°33'3 5.3
2018-Jun-01 13:28N 37°08' E 021°34'9 5.2
2018-Jun-01 11:40N 36°59' E 021°37'5 0.1
2018-May-30 09:32N 36°55' E 021°42'0 0.0
2018-May-30 09:30N 36°55' E 021°42'  
Track history (hours):
 
Tides and Currents Weather Stations Pressure Air Temp Water Temp Dewpoint Dewpoint Depression Visibility Wind Speed Wind Dir Waves Ship Positions

Annie

Last reported at 2018-Jun-08 14:40 UTC. Time now 2018-Jul-17 04:03 UTC.
Position N 39°38' E 019°56'.
Warning: this ship's position is 38 days out of date.

Length 11 m; draft 2.2 m.

Type: Sailing vessel. MMSI: 211526340.

Date/timePositionNaut miles runAvg speedWind from/ knotsBaromVisibWave heightAir tempDewpointWater temp
2018-Jun-08 14:40N 39°38' E 019°56'25 0.5
2018-Jun-06 14:12N 39°14' E 020°08'  
2018-Jun-03 10:40N 38°10' E 020°47'8 5.8
2018-Jun-03 09:13N 38°04' E 020°53'5 5.7
2018-Jun-03 08:17N 37°59' E 020°57'20 5.6
2018-Jun-03 04:46N 37°44' E 021°13'7 0.4
2018-Jun-02 11:33N 37°39' E 021°19'0 4.5
2018-Jun-02 11:30N 37°39' E 021°20'3 5.7
2018-Jun-02 11:01N 37°36' E 021°20'3 5.1
2018-Jun-02 10:30N 37°33' E 021°20'24 6.0
2018-Jun-02 06:32N 37°15' E 021°40'0 0.0
2018-Jun-01 16:35N 37°15' E 021°40'0 0.0
2018-Jun-01 16:29N 37°15' E 021°40'7 2.8
2018-Jun-01 14:01N 37°11' E 021°33'0 6.0
2018-Jun-01 14:00N 37°11' E 021°33'3 5.3
2018-Jun-01 13:28N 37°08' E 021°34'9 5.2
2018-Jun-01 11:40N 36°59' E 021°37'5 0.1
2018-May-30 09:32N 36°55' E 021°42'0 0.0
2018-May-30 09:30N 36°55' E 021°42'  

Dump ship's entire track history